sensor_id;sensor_type;location;lat;lon;timestamp;temperature;humidity
53282;DHT22;39167;52.794;6.892;2022-10-16T00:00:57;12.60;99.90
53282;DHT22;39167;52.794;6.892;2022-10-16T00:03:23;12.60;99.90
53282;DHT22;39167;52.794;6.892;2022-10-16T00:05:48;12.60;99.90
53282;DHT22;39167;52.794;6.892;2022-10-16T00:08:14;12.60;99.90
53282;DHT22;39167;52.794;6.892;2022-10-16T00:10:40;12.60;99.90
53282;DHT22;39167;52.794;6.892;2022-10-16T00:13:06;12.60;99.90
53282;DHT22;39167;52.794;6.892;2022-10-16T00:15:36;12.60;99.90
53282;DHT22;39167;52.794;6.892;2022-10-16T00:18:04;12.60;99.90
53282;DHT22;39167;52.794;6.892;2022-10-16T00:20:29;12.60;99.90
53282;DHT22;39167;52.794;6.892;2022-10-16T00:22:57;12.60;99.90
53282;DHT22;39167;52.794;6.892;2022-10-16T00:25:23;12.60;99.90
53282;DHT22;39167;52.794;6.892;2022-10-16T00:27:48;12.60;99.90
53282;DHT22;39167;52.794;6.892;2022-10-16T00:30:14;12.60;99.90
53282;DHT22;39167;52.794;6.892;2022-10-16T00:32:40;12.50;99.90
53282;DHT22;39167;52.794;6.892;2022-10-16T00:35:06;12.50;99.90
53282;DHT22;39167;52.794;6.892;2022-10-16T00:37:31;12.60;99.90
53282;DHT22;39167;52.794;6.892;2022-10-16T00:39:57;12.60;99.90
53282;DHT22;39167;52.794;6.892;2022-10-16T00:42:23;12.50;99.90
53282;DHT22;39167;52.794;6.892;2022-10-16T00:44:52;12.50;99.90
53282;DHT22;39167;52.794;6.892;2022-10-16T00:49:52;12.50;99.90
53282;DHT22;39167;52.794;6.892;2022-10-16T00:52:19;12.50;99.90
53282;DHT22;39167;52.794;6.892;2022-10-16T00:54:46;12.50;99.90
53282;DHT22;39167;52.794;6.892;2022-10-16T00:57:12;12.50;99.90
53282;DHT22;39167;52.794;6.892;2022-10-16T00:59:41;12.50;99.90
53282;DHT22;39167;52.794;6.892;2022-10-16T01:02:10;12.50;99.90
53282;DHT22;39167;52.794;6.892;2022-10-16T01:04:43;12.50;99.90
53282;DHT22;39167;52.794;6.892;2022-10-16T01:07:20;12.50;99.90
53282;DHT22;39167;52.794;6.892;2022-10-16T01:15:10;12.40;99.90
53282;DHT22;39167;52.794;6.892;2022-10-16T01:18:25;12.40;99.90
53282;DHT22;39167;52.794;6.892;2022-10-16T01:20:33;12.40;99.90
53282;DHT22;39167;52.794;6.892;2022-10-16T01:31:18;12.50;99.90
53282;DHT22;39167;52.794;6.892;2022-10-16T01:33:48;12.40;99.90
53282;DHT22;39167;52.794;6.892;2022-10-16T01:36:18;12.40;99.90
53282;DHT22;39167;52.794;6.892;2022-10-16T01:38:48;12.40;99.90
53282;DHT22;39167;52.794;6.892;2022-10-16T01:41:33;12.40;99.90
53282;DHT22;39167;52.794;6.892;2022-10-16T01:44:30;12.40;99.90
53282;DHT22;39167;52.794;6.892;2022-10-16T01:46:55;12.40;99.90
53282;DHT22;39167;52.794;6.892;2022-10-16T01:49:25;12.40;99.90
53282;DHT22;39167;52.794;6.892;2022-10-16T01:51:54;12.40;99.90
53282;DHT22;39167;52.794;6.892;2022-10-16T01:54:22;12.60;99.90
53282;DHT22;39167;52.794;6.892;2022-10-16T01:56:50;12.40;99.90
53282;DHT22;39167;52.794;6.892;2022-10-16T01:59:19;12.40;99.90
53282;DHT22;39167;52.794;6.892;2022-10-16T02:01:48;12.40;99.90
53282;DHT22;39167;52.794;6.892;2022-10-16T02:04:24;12.30;99.90
53282;DHT22;39167;52.794;6.892;2022-10-16T02:06:52;12.40;99.90
53282;DHT22;39167;52.794;6.892;2022-10-16T02:09:18;12.40;99.90
53282;DHT22;39167;52.794;6.892;2022-10-16T02:11:44;12.40;99.90
53282;DHT22;39167;52.794;6.892;2022-10-16T02:14:10;12.40;99.90
53282;DHT22;39167;52.794;6.892;2022-10-16T02:16:39;12.40;99.90
53282;DHT22;39167;52.794;6.892;2022-10-16T02:19:06;12.40;99.90
53282;DHT22;39167;52.794;6.892;2022-10-16T02:21:56;12.40;99.90
53282;DHT22;39167;52.794;6.892;2022-10-16T02:24:24;12.40;99.90
53282;DHT22;39167;52.794;6.892;2022-10-16T02:27:06;12.40;99.90
53282;DHT22;39167;52.794;6.892;2022-10-16T02:29:41;12.40;99.90
53282;DHT22;39167;52.794;6.892;2022-10-16T02:32:13;12.40;99.90
53282;DHT22;39167;52.794;6.892;2022-10-16T02:34:41;12.40;99.90
53282;DHT22;39167;52.794;6.892;2022-10-16T02:37:07;12.40;99.90
53282;DHT22;39167;52.794;6.892;2022-10-16T02:39:33;12.40;99.90
53282;DHT22;39167;52.794;6.892;2022-10-16T02:41:59;12.40;99.90
53282;DHT22;39167;52.794;6.892;2022-10-16T02:44:25;12.40;99.90
53282;DHT22;39167;52.794;6.892;2022-10-16T02:46:51;12.40;99.90
53282;DHT22;39167;52.794;6.892;2022-10-16T02:49:16;12.40;99.90
53282;DHT22;39167;52.794;6.892;2022-10-16T02:51:43;12.40;99.90
53282;DHT22;39167;52.794;6.892;2022-10-16T02:54:09;12.40;99.90
53282;DHT22;39167;52.794;6.892;2022-10-16T02:56:34;12.40;99.90
53282;DHT22;39167;52.794;6.892;2022-10-16T02:59:00;12.40;99.90
53282;DHT22;39167;52.794;6.892;2022-10-16T03:01:26;12.40;99.90
53282;DHT22;39167;52.794;6.892;2022-10-16T03:03:51;12.40;99.90
53282;DHT22;39167;52.794;6.892;2022-10-16T03:06:17;12.50;99.90
53282;DHT22;39167;52.794;6.892;2022-10-16T03:08:43;12.40;99.90
53282;DHT22;39167;52.794;6.892;2022-10-16T03:11:09;12.50;99.90
53282;DHT22;39167;52.794;6.892;2022-10-16T03:13:34;12.50;99.90
53282;DHT22;39167;52.794;6.892;2022-10-16T03:16:00;12.50;99.90
53282;DHT22;39167;52.794;6.892;2022-10-16T03:18:25;12.50;99.90
53282;DHT22;39167;52.794;6.892;2022-10-16T03:20:51;12.60;99.90
53282;DHT22;39167;52.794;6.892;2022-10-16T03:23:17;12.50;99.90
53282;DHT22;39167;52.794;6.892;2022-10-16T03:25:42;12.60;99.90
53282;DHT22;39167;52.794;6.892;2022-10-16T03:28:08;12.60;99.90
53282;DHT22;39167;52.794;6.892;2022-10-16T03:30:34;12.60;99.90
53282;DHT22;39167;52.794;6.892;2022-10-16T03:33:00;12.60;99.90
53282;DHT22;39167;52.794;6.892;2022-10-16T03:35:26;12.60;99.90
53282;DHT22;39167;52.794;6.892;2022-10-16T03:37:51;12.60;99.90
53282;DHT22;39167;52.794;6.892;2022-10-16T03:40:17;12.70;99.90
53282;DHT22;39167;52.794;6.892;2022-10-16T03:42:43;12.70;99.90
53282;DHT22;39167;52.794;6.892;2022-10-16T03:45:10;12.70;99.90
53282;DHT22;39167;52.794;6.892;2022-10-16T03:47:36;12.70;99.90
53282;DHT22;39167;52.794;6.892;2022-10-16T03:50:02;12.70;99.90
53282;DHT22;39167;52.794;6.892;2022-10-16T03:52:28;12.70;99.90
53282;DHT22;39167;52.794;6.892;2022-10-16T03:54:54;12.70;99.90
53282;DHT22;39167;52.794;6.892;2022-10-16T03:57:19;12.70;99.90
53282;DHT22;39167;52.794;6.892;2022-10-16T03:59:46;12.70;99.90
53282;DHT22;39167;52.794;6.892;2022-10-16T04:02:12;12.70;99.90
53282;DHT22;39167;52.794;6.892;2022-10-16T04:04:38;12.70;99.90
53282;DHT22;39167;52.794;6.892;2022-10-16T04:07:03;12.80;99.90
53282;DHT22;39167;52.794;6.892;2022-10-16T04:09:29;12.70;99.90
53282;DHT22;39167;52.794;6.892;2022-10-16T04:11:55;12.70;99.90
53282;DHT22;39167;52.794;6.892;2022-10-16T04:14:20;12.70;99.90
53282;DHT22;39167;52.794;6.892;2022-10-16T04:16:46;12.70;99.90
53282;DHT22;39167;52.794;6.892;2022-10-16T04:19:12;12.70;99.90
53282;DHT22;39167;52.794;6.892;2022-10-16T04:21:38;12.70;99.90
53282;DHT22;39167;52.794;6.892;2022-10-16T04:24:03;12.70;99.90
53282;DHT22;39167;52.794;6.892;2022-10-16T04:26:29;12.90;99.90
53282;DHT22;39167;52.794;6.892;2022-10-16T04:28:55;12.70;99.90
53282;DHT22;39167;52.794;6.892;2022-10-16T04:31:21;12.70;99.90
53282;DHT22;39167;52.794;6.892;2022-10-16T04:33:46;12.70;99.90
53282;DHT22;39167;52.794;6.892;2022-10-16T04:36:12;12.60;99.90
53282;DHT22;39167;52.794;6.892;2022-10-16T04:38:38;12.60;99.90
53282;DHT22;39167;52.794;6.892;2022-10-16T04:41:05;12.60;99.90
53282;DHT22;39167;52.794;6.892;2022-10-16T04:43:31;12.60;99.90
53282;DHT22;39167;52.794;6.892;2022-10-16T04:45:57;12.60;99.90
53282;DHT22;39167;52.794;6.892;2022-10-16T04:48:23;12.60;99.90
53282;DHT22;39167;52.794;6.892;2022-10-16T04:50:49;12.60;99.90
53282;DHT22;39167;52.794;6.892;2022-10-16T04:53:14;12.60;99.90
53282;DHT22;39167;52.794;6.892;2022-10-16T04:55:41;12.60;99.90
53282;DHT22;39167;52.794;6.892;2022-10-16T04:58:08;12.60;99.90
53282;DHT22;39167;52.794;6.892;2022-10-16T05:00:34;12.60;99.90
53282;DHT22;39167;52.794;6.892;2022-10-16T05:03:00;12.60;99.90
53282;DHT22;39167;52.794;6.892;2022-10-16T05:05:27;12.60;99.90
53282;DHT22;39167;52.794;6.892;2022-10-16T05:07:53;12.60;99.90
53282;DHT22;39167;52.794;6.892;2022-10-16T05:10:19;12.80;99.90
53282;DHT22;39167;52.794;6.892;2022-10-16T05:12:45;12.60;99.90
53282;DHT22;39167;52.794;6.892;2022-10-16T05:15:11;12.60;99.90
53282;DHT22;39167;52.794;6.892;2022-10-16T05:17:37;12.60;99.90
53282;DHT22;39167;52.794;6.892;2022-10-16T05:20:03;12.60;99.90
53282;DHT22;39167;52.794;6.892;2022-10-16T05:22:29;12.60;99.90
53282;DHT22;39167;52.794;6.892;2022-10-16T05:24:54;12.60;99.90
53282;DHT22;39167;52.794;6.892;2022-10-16T05:27:20;12.60;99.90
53282;DHT22;39167;52.794;6.892;2022-10-16T05:29:47;12.60;99.90
53282;DHT22;39167;52.794;6.892;2022-10-16T05:32:14;12.60;99.90
53282;DHT22;39167;52.794;6.892;2022-10-16T05:34:40;12.60;99.90
53282;DHT22;39167;52.794;6.892;2022-10-16T05:37:06;12.50;99.90
53282;DHT22;39167;52.794;6.892;2022-10-16T05:39:31;12.50;99.90
53282;DHT22;39167;52.794;6.892;2022-10-16T05:41:57;12.50;99.90
53282;DHT22;39167;52.794;6.892;2022-10-16T05:44:23;12.50;99.90
53282;DHT22;39167;52.794;6.892;2022-10-16T05:46:48;12.50;99.90
53282;DHT22;39167;52.794;6.892;2022-10-16T05:49:14;12.50;99.90
53282;DHT22;39167;52.794;6.892;2022-10-16T05:51:40;12.50;99.90
53282;DHT22;39167;52.794;6.892;2022-10-16T05:54:07;12.50;99.90
53282;DHT22;39167;52.794;6.892;2022-10-16T05:56:32;12.50;99.90
53282;DHT22;39167;52.794;6.892;2022-10-16T05:58:58;12.50;99.90
53282;DHT22;39167;52.794;6.892;2022-10-16T06:01:24;12.40;99.90
53282;DHT22;39167;52.794;6.892;2022-10-16T06:03:51;12.50;99.90
53282;DHT22;39167;52.794;6.892;2022-10-16T06:06:19;12.40;99.90
53282;DHT22;39167;52.794;6.892;2022-10-16T06:08:47;12.40;99.90
53282;DHT22;39167;52.794;6.892;2022-10-16T06:11:16;12.50;99.90
53282;DHT22;39167;52.794;6.892;2022-10-16T06:13:43;12.40;99.90
53282;DHT22;39167;52.794;6.892;2022-10-16T06:16:11;12.40;99.90
53282;DHT22;39167;52.794;6.892;2022-10-16T06:18:38;12.50;99.90
53282;DHT22;39167;52.794;6.892;2022-10-16T06:21:12;12.50;99.90
53282;DHT22;39167;52.794;6.892;2022-10-16T06:23:39;12.50;99.90
53282;DHT22;39167;52.794;6.892;2022-10-16T06:26:09;12.50;99.90
53282;DHT22;39167;52.794;6.892;2022-10-16T06:28:35;12.50;99.90
53282;DHT22;39167;52.794;6.892;2022-10-16T06:31:03;12.50;99.90
53282;DHT22;39167;52.794;6.892;2022-10-16T06:33:29;12.50;99.90
53282;DHT22;39167;52.794;6.892;2022-10-16T06:36:10;12.50;99.90
53282;DHT22;39167;52.794;6.892;2022-10-16T06:38:37;12.50;99.90
53282;DHT22;39167;52.794;6.892;2022-10-16T06:41:03;12.50;99.90
53282;DHT22;39167;52.794;6.892;2022-10-16T06:43:30;12.50;99.90
53282;DHT22;39167;52.794;6.892;2022-10-16T06:46:01;12.50;99.90
53282;DHT22;39167;52.794;6.892;2022-10-16T06:48:28;12.50;99.90
53282;DHT22;39167;52.794;6.892;2022-10-16T06:51:02;12.60;99.90
53282;DHT22;39167;52.794;6.892;2022-10-16T06:53:30;12.60;99.90
53282;DHT22;39167;52.794;6.892;2022-10-16T06:55:56;12.60;99.90
53282;DHT22;39167;52.794;6.892;2022-10-16T06:58:22;12.70;99.90
53282;DHT22;39167;52.794;6.892;2022-10-16T07:00:48;12.60;99.90
53282;DHT22;39167;52.794;6.892;2022-10-16T07:03:14;12.60;99.90
53282;DHT22;39167;52.794;6.892;2022-10-16T07:05:41;12.70;99.90
53282;DHT22;39167;52.794;6.892;2022-10-16T07:08:08;12.70;99.90
53282;DHT22;39167;52.794;6.892;2022-10-16T07:10:34;12.70;99.90
53282;DHT22;39167;52.794;6.892;2022-10-16T07:13:00;12.70;99.90
53282;DHT22;39167;52.794;6.892;2022-10-16T07:15:26;12.70;99.90
53282;DHT22;39167;52.794;6.892;2022-10-16T07:17:52;12.70;99.90
53282;DHT22;39167;52.794;6.892;2022-10-16T07:20:18;12.70;99.90
53282;DHT22;39167;52.794;6.892;2022-10-16T07:22:44;12.80;99.90
53282;DHT22;39167;52.794;6.892;2022-10-16T07:25:10;12.80;99.90
53282;DHT22;39167;52.794;6.892;2022-10-16T07:27:36;12.80;99.90
53282;DHT22;39167;52.794;6.892;2022-10-16T07:30:02;12.80;99.90
53282;DHT22;39167;52.794;6.892;2022-10-16T07:32:28;12.90;99.90
53282;DHT22;39167;52.794;6.892;2022-10-16T07:34:54;12.90;99.90
53282;DHT22;39167;52.794;6.892;2022-10-16T07:37:21;12.90;99.90
53282;DHT22;39167;52.794;6.892;2022-10-16T07:39:47;12.90;99.90
53282;DHT22;39167;52.794;6.892;2022-10-16T07:42:12;12.90;99.90
53282;DHT22;39167;52.794;6.892;2022-10-16T07:44:38;13.00;99.90
53282;DHT22;39167;52.794;6.892;2022-10-16T07:47:05;13.00;99.90
53282;DHT22;39167;52.794;6.892;2022-10-16T07:49:31;13.00;99.90
53282;DHT22;39167;52.794;6.892;2022-10-16T07:51:57;13.10;99.90
53282;DHT22;39167;52.794;6.892;2022-10-16T07:54:22;13.10;99.90
53282;DHT22;39167;52.794;6.892;2022-10-16T07:56:48;13.10;99.90
53282;DHT22;39167;52.794;6.892;2022-10-16T07:59:14;13.20;99.90
53282;DHT22;39167;52.794;6.892;2022-10-16T08:01:40;13.20;99.90
53282;DHT22;39167;52.794;6.892;2022-10-16T08:04:08;13.20;99.90
53282;DHT22;39167;52.794;6.892;2022-10-16T08:06:36;13.40;99.90
53282;DHT22;39167;52.794;6.892;2022-10-16T08:09:02;13.20;99.90
53282;DHT22;39167;52.794;6.892;2022-10-16T08:11:28;13.30;99.90
53282;DHT22;39167;52.794;6.892;2022-10-16T08:13:54;13.30;99.90
53282;DHT22;39167;52.794;6.892;2022-10-16T08:16:20;13.30;99.90
53282;DHT22;39167;52.794;6.892;2022-10-16T08:18:46;13.30;99.90
53282;DHT22;39167;52.794;6.892;2022-10-16T08:21:17;13.40;99.90
53282;DHT22;39167;52.794;6.892;2022-10-16T08:23:43;13.40;99.90
53282;DHT22;39167;52.794;6.892;2022-10-16T08:26:09;13.50;99.90
53282;DHT22;39167;52.794;6.892;2022-10-16T08:28:36;13.50;99.90
53282;DHT22;39167;52.794;6.892;2022-10-16T08:31:13;13.50;99.90
53282;DHT22;39167;52.794;6.892;2022-10-16T08:33:41;13.50;99.90
53282;DHT22;39167;52.794;6.892;2022-10-16T08:36:08;13.60;99.90
53282;DHT22;39167;52.794;6.892;2022-10-16T08:38:34;13.60;99.90
53282;DHT22;39167;52.794;6.892;2022-10-16T08:48:54;13.70;99.90
53282;DHT22;39167;52.794;6.892;2022-10-16T08:51:31;13.70;99.90
53282;DHT22;39167;52.794;6.892;2022-10-16T08:54:31;13.90;99.90
53282;DHT22;39167;52.794;6.892;2022-10-16T08:57:17;13.90;99.90
53282;DHT22;39167;52.794;6.892;2022-10-16T08:59:44;14.00;99.90
53282;DHT22;39167;52.794;6.892;2022-10-16T09:08:37;14.00;99.90
53282;DHT22;39167;52.794;6.892;2022-10-16T09:11:20;14.20;99.90
53282;DHT22;39167;52.794;6.892;2022-10-16T09:16:24;14.20;99.90
53282;DHT22;39167;52.794;6.892;2022-10-16T09:21:43;14.30;99.90
53282;DHT22;39167;52.794;6.892;2022-10-16T09:24:21;14.30;99.90
53282;DHT22;39167;52.794;6.892;2022-10-16T09:26:49;14.50;99.90
53282;DHT22;39167;52.794;6.892;2022-10-16T09:29:16;14.50;99.90
53282;DHT22;39167;52.794;6.892;2022-10-16T09:31:43;14.60;99.90
53282;DHT22;39167;52.794;6.892;2022-10-16T09:36:50;14.70;99.90
53282;DHT22;39167;52.794;6.892;2022-10-16T09:39:17;14.80;99.90
53282;DHT22;39167;52.794;6.892;2022-10-16T09:41:45;14.80;99.90
53282;DHT22;39167;52.794;6.892;2022-10-16T09:44:25;14.80;99.90
53282;DHT22;39167;52.794;6.892;2022-10-16T09:47:11;14.90;99.90
53282;DHT22;39167;52.794;6.892;2022-10-16T09:49:38;15.00;99.90
53282;DHT22;39167;52.794;6.892;2022-10-16T09:52:14;15.00;99.90
53282;DHT22;39167;52.794;6.892;2022-10-16T09:54:58;15.10;99.90
53282;DHT22;39167;52.794;6.892;2022-10-16T09:57:24;15.10;99.90
53282;DHT22;39167;52.794;6.892;2022-10-16T09:59:52;15.20;99.90
53282;DHT22;39167;52.794;6.892;2022-10-16T10:02:23;15.30;99.90
53282;DHT22;39167;52.794;6.892;2022-10-16T10:04:54;15.30;99.90
53282;DHT22;39167;52.794;6.892;2022-10-16T10:07:37;15.30;99.90
53282;DHT22;39167;52.794;6.892;2022-10-16T10:10:18;15.40;99.90
53282;DHT22;39167;52.794;6.892;2022-10-16T10:12:45;15.50;99.90
53282;DHT22;39167;52.794;6.892;2022-10-16T10:15:12;15.40;99.90
53282;DHT22;39167;52.794;6.892;2022-10-16T10:17:53;15.50;99.90
53282;DHT22;39167;52.794;6.892;2022-10-16T10:20:35;15.50;99.90
53282;DHT22;39167;52.794;6.892;2022-10-16T10:23:25;15.50;99.90
53282;DHT22;39167;52.794;6.892;2022-10-16T10:28:47;15.60;99.90
53282;DHT22;39167;52.794;6.892;2022-10-16T10:37:18;15.80;99.90
53282;DHT22;39167;52.794;6.892;2022-10-16T10:42:53;15.80;99.90
53282;DHT22;39167;52.794;6.892;2022-10-16T10:47:51;15.90;99.90
53282;DHT22;39167;52.794;6.892;2022-10-16T11:01:19;15.90;99.90
53282;DHT22;39167;52.794;6.892;2022-10-16T11:06:39;15.90;99.90
53282;DHT22;39167;52.794;6.892;2022-10-16T11:09:39;15.90;99.90
53282;DHT22;39167;52.794;6.892;2022-10-16T11:12:19;15.90;99.90
53282;DHT22;39167;52.794;6.892;2022-10-16T11:14:58;15.90;99.90
53282;DHT22;39167;52.794;6.892;2022-10-16T11:17:33;15.90;99.90
53282;DHT22;39167;52.794;6.892;2022-10-16T11:20:14;15.90;99.90
53282;DHT22;39167;52.794;6.892;2022-10-16T11:25:32;15.80;99.90
53282;DHT22;39167;52.794;6.892;2022-10-16T11:30:41;15.70;99.90
53282;DHT22;39167;52.794;6.892;2022-10-16T11:33:14;15.70;99.90
53282;DHT22;39167;52.794;6.892;2022-10-16T11:35:56;15.60;99.90
53282;DHT22;39167;52.794;6.892;2022-10-16T11:38:51;15.60;99.90
53282;DHT22;39167;52.794;6.892;2022-10-16T11:44:10;15.70;99.90
53282;DHT22;39167;52.794;6.892;2022-10-16T11:46:41;15.70;99.90
53282;DHT22;39167;52.794;6.892;2022-10-16T11:51:48;15.80;99.90
53282;DHT22;39167;52.794;6.892;2022-10-16T11:54:29;15.90;99.90
53282;DHT22;39167;52.794;6.892;2022-10-16T11:57:02;16.00;99.90
53282;DHT22;39167;52.794;6.892;2022-10-16T11:59:47;16.10;99.90
53282;DHT22;39167;52.794;6.892;2022-10-16T12:07:52;16.30;99.90
53282;DHT22;39167;52.794;6.892;2022-10-16T12:10:24;16.40;99.90
53282;DHT22;39167;52.794;6.892;2022-10-16T12:12:51;16.50;99.90
53282;DHT22;39167;52.794;6.892;2022-10-16T12:15:28;16.50;99.90
53282;DHT22;39167;52.794;6.892;2022-10-16T12:17:55;16.60;99.90
53282;DHT22;39167;52.794;6.892;2022-10-16T12:20:29;16.60;99.90
53282;DHT22;39167;52.794;6.892;2022-10-16T12:23:02;16.60;99.90
53282;DHT22;39167;52.794;6.892;2022-10-16T12:27:59;16.50;99.90
53282;DHT22;39167;52.794;6.892;2022-10-16T12:30:27;16.50;99.90
53282;DHT22;39167;52.794;6.892;2022-10-16T12:33:01;16.50;99.90
53282;DHT22;39167;52.794;6.892;2022-10-16T12:35:30;16.40;99.90
53282;DHT22;39167;52.794;6.892;2022-10-16T12:38:12;16.40;99.90
53282;DHT22;39167;52.794;6.892;2022-10-16T12:40:40;16.50;99.90
53282;DHT22;39167;52.794;6.892;2022-10-16T12:43:57;16.40;99.90
53282;DHT22;39167;52.794;6.892;2022-10-16T12:46:22;16.50;99.90
53282;DHT22;39167;52.794;6.892;2022-10-16T12:48:48;16.50;99.90
53282;DHT22;39167;52.794;6.892;2022-10-16T12:54:18;16.60;99.90
53282;DHT22;39167;52.794;6.892;2022-10-16T13:08:36;16.60;99.90
53282;DHT22;39167;52.794;6.892;2022-10-16T13:13:53;16.70;99.90
53282;DHT22;39167;52.794;6.892;2022-10-16T13:21:58;16.70;99.90
53282;DHT22;39167;52.794;6.892;2022-10-16T13:27:34;16.60;99.90
53282;DHT22;39167;52.794;6.892;2022-10-16T13:30:12;16.70;99.90
53282;DHT22;39167;52.794;6.892;2022-10-16T13:32:40;16.70;99.90
53282;DHT22;39167;52.794;6.892;2022-10-16T13:35:46;16.70;99.90
53282;DHT22;39167;52.794;6.892;2022-10-16T13:38:16;16.80;99.90
53282;DHT22;39167;52.794;6.892;2022-10-16T13:40:49;16.90;99.90
53282;DHT22;39167;52.794;6.892;2022-10-16T13:43:18;17.00;99.90
53282;DHT22;39167;52.794;6.892;2022-10-16T13:45:53;17.00;99.90
53282;DHT22;39167;52.794;6.892;2022-10-16T13:48:19;17.10;99.90
53282;DHT22;39167;52.794;6.892;2022-10-16T13:50:44;17.00;99.90
53282;DHT22;39167;52.794;6.892;2022-10-16T13:53:14;17.10;99.90
53282;DHT22;39167;52.794;6.892;2022-10-16T13:55:40;17.10;99.90
53282;DHT22;39167;52.794;6.892;2022-10-16T13:58:12;17.10;99.90
53282;DHT22;39167;52.794;6.892;2022-10-16T14:00:38;17.10;99.90
53282;DHT22;39167;52.794;6.892;2022-10-16T14:03:11;17.10;99.90
53282;DHT22;39167;52.794;6.892;2022-10-16T14:05:49;17.00;99.90
53282;DHT22;39167;52.794;6.892;2022-10-16T14:08:16;17.00;99.90
53282;DHT22;39167;52.794;6.892;2022-10-16T14:10:42;17.00;99.90
53282;DHT22;39167;52.794;6.892;2022-10-16T14:13:17;17.00;99.90
53282;DHT22;39167;52.794;6.892;2022-10-16T14:15:45;16.90;99.90
53282;DHT22;39167;52.794;6.892;2022-10-16T14:18:26;16.80;99.90
53282;DHT22;39167;52.794;6.892;2022-10-16T14:20:52;16.80;99.90
53282;DHT22;39167;52.794;6.892;2022-10-16T14:23:23;16.80;99.90
53282;DHT22;39167;52.794;6.892;2022-10-16T14:25:53;16.80;99.90
53282;DHT22;39167;52.794;6.892;2022-10-16T14:28:23;16.70;99.90
53282;DHT22;39167;52.794;6.892;2022-10-16T14:30:54;16.80;99.90
53282;DHT22;39167;52.794;6.892;2022-10-16T14:36:11;16.70;99.90
53282;DHT22;39167;52.794;6.892;2022-10-16T14:38:39;16.70;99.90
53282;DHT22;39167;52.794;6.892;2022-10-16T14:41:06;16.70;99.90
53282;DHT22;39167;52.794;6.892;2022-10-16T14:43:41;16.70;99.90
53282;DHT22;39167;52.794;6.892;2022-10-16T14:46:13;16.70;99.90
53282;DHT22;39167;52.794;6.892;2022-10-16T14:48:50;16.70;99.90
53282;DHT22;39167;52.794;6.892;2022-10-16T14:51:18;16.70;99.90
53282;DHT22;39167;52.794;6.892;2022-10-16T14:53:44;16.60;99.90
53282;DHT22;39167;52.794;6.892;2022-10-16T14:56:19;16.60;99.90
53282;DHT22;39167;52.794;6.892;2022-10-16T14:58:45;16.60;99.90
53282;DHT22;39167;52.794;6.892;2022-10-16T15:01:11;16.60;99.90
53282;DHT22;39167;52.794;6.892;2022-10-16T15:03:37;16.60;99.90
53282;DHT22;39167;52.794;6.892;2022-10-16T15:06:04;16.50;99.90
53282;DHT22;39167;52.794;6.892;2022-10-16T15:08:34;16.50;99.90
53282;DHT22;39167;52.794;6.892;2022-10-16T15:11:00;16.50;99.90
53282;DHT22;39167;52.794;6.892;2022-10-16T15:13:26;16.50;99.90
53282;DHT22;39167;52.794;6.892;2022-10-16T15:15:52;16.50;99.90
53282;DHT22;39167;52.794;6.892;2022-10-16T15:18:18;16.50;99.90
53282;DHT22;39167;52.794;6.892;2022-10-16T15:20:51;16.50;99.90
53282;DHT22;39167;52.794;6.892;2022-10-16T15:23:22;16.50;99.90
53282;DHT22;39167;52.794;6.892;2022-10-16T15:25:52;16.50;99.90
53282;DHT22;39167;52.794;6.892;2022-10-16T15:28:19;16.50;99.90
53282;DHT22;39167;52.794;6.892;2022-10-16T15:30:46;16.40;99.90
53282;DHT22;39167;52.794;6.892;2022-10-16T15:33:15;16.40;99.90
53282;DHT22;39167;52.794;6.892;2022-10-16T15:35:41;16.30;99.90
53282;DHT22;39167;52.794;6.892;2022-10-16T15:38:11;16.30;99.90
53282;DHT22;39167;52.794;6.892;2022-10-16T15:40:38;16.30;99.90
53282;DHT22;39167;52.794;6.892;2022-10-16T15:43:03;16.20;99.90
53282;DHT22;39167;52.794;6.892;2022-10-16T15:45:29;16.20;99.90
53282;DHT22;39167;52.794;6.892;2022-10-16T15:47:55;16.20;99.90
53282;DHT22;39167;52.794;6.892;2022-10-16T15:50:20;16.10;99.90
53282;DHT22;39167;52.794;6.892;2022-10-16T15:52:46;16.10;99.90
53282;DHT22;39167;52.794;6.892;2022-10-16T15:55:14;16.10;99.90
53282;DHT22;39167;52.794;6.892;2022-10-16T15:57:40;16.00;99.90
53282;DHT22;39167;52.794;6.892;2022-10-16T16:00:19;16.00;99.90
53282;DHT22;39167;52.794;6.892;2022-10-16T16:02:55;15.90;99.90
53282;DHT22;39167;52.794;6.892;2022-10-16T16:05:22;15.90;99.90
53282;DHT22;39167;52.794;6.892;2022-10-16T16:07:49;15.80;99.90
53282;DHT22;39167;52.794;6.892;2022-10-16T16:10:15;15.80;99.90
53282;DHT22;39167;52.794;6.892;2022-10-16T16:12:41;15.70;99.90
53282;DHT22;39167;52.794;6.892;2022-10-16T16:15:08;15.60;99.90
53282;DHT22;39167;52.794;6.892;2022-10-16T16:17:34;15.60;99.90
53282;DHT22;39167;52.794;6.892;2022-10-16T16:20:01;15.50;99.90
53282;DHT22;39167;52.794;6.892;2022-10-16T16:22:27;15.40;99.90
53282;DHT22;39167;52.794;6.892;2022-10-16T16:24:53;15.40;99.90
53282;DHT22;39167;52.794;6.892;2022-10-16T16:27:19;15.30;99.90
53282;DHT22;39167;52.794;6.892;2022-10-16T16:29:50;15.20;99.90
53282;DHT22;39167;52.794;6.892;2022-10-16T16:32:16;15.10;99.90
53282;DHT22;39167;52.794;6.892;2022-10-16T16:34:41;15.10;99.90
53282;DHT22;39167;52.794;6.892;2022-10-16T16:37:07;15.00;99.90
53282;DHT22;39167;52.794;6.892;2022-10-16T16:39:33;14.90;99.90
53282;DHT22;39167;52.794;6.892;2022-10-16T16:41:59;14.90;99.90
53282;DHT22;39167;52.794;6.892;2022-10-16T16:44:25;14.80;99.90
53282;DHT22;39167;52.794;6.892;2022-10-16T16:46:51;14.70;99.90
53282;DHT22;39167;52.794;6.892;2022-10-16T16:49:17;14.70;99.90
53282;DHT22;39167;52.794;6.892;2022-10-16T16:51:43;14.60;99.90
53282;DHT22;39167;52.794;6.892;2022-10-16T16:54:10;14.50;99.90
53282;DHT22;39167;52.794;6.892;2022-10-16T16:56:37;14.50;99.90
53282;DHT22;39167;52.794;6.892;2022-10-16T16:59:03;14.40;99.90
53282;DHT22;39167;52.794;6.892;2022-10-16T17:01:29;14.40;99.90
53282;DHT22;39167;52.794;6.892;2022-10-16T17:03:57;14.30;99.90
53282;DHT22;39167;52.794;6.892;2022-10-16T17:06:28;14.30;99.90
53282;DHT22;39167;52.794;6.892;2022-10-16T17:08:57;14.20;99.90
53282;DHT22;39167;52.794;6.892;2022-10-16T17:11:26;14.10;99.90
53282;DHT22;39167;52.794;6.892;2022-10-16T17:13:53;14.10;99.90
53282;DHT22;39167;52.794;6.892;2022-10-16T17:16:20;14.00;99.90
53282;DHT22;39167;52.794;6.892;2022-10-16T17:18:46;14.00;99.90
53282;DHT22;39167;52.794;6.892;2022-10-16T17:21:12;13.90;99.90
53282;DHT22;39167;52.794;6.892;2022-10-16T17:23:38;13.90;99.90
53282;DHT22;39167;52.794;6.892;2022-10-16T17:26:09;13.80;99.90
53282;DHT22;39167;52.794;6.892;2022-10-16T17:28:35;13.80;99.90
53282;DHT22;39167;52.794;6.892;2022-10-16T17:33:33;13.60;99.90
53282;DHT22;39167;52.794;6.892;2022-10-16T17:35:59;13.60;99.90
53282;DHT22;39167;52.794;6.892;2022-10-16T17:38:25;13.50;99.90